sensor_id;sensor_type;location;lat;lon;timestamp;pressure;altitude;pressure_sealevel;temperature;humidity
18784;BME280;9520;50.954;6.968;2022-12-07T00:00:20;101137.16;;;12.63;52.00
18784;BME280;9520;50.954;6.968;2022-12-07T00:00:41;101138.91;;;12.66;51.73
18784;BME280;9520;50.954;6.968;2022-12-07T00:01:07;101144.19;;;12.67;52.01
18784;BME280;9520;50.954;6.968;2022-12-07T00:01:32;101137.03;;;12.72;51.93
18784;BME280;9520;50.954;6.968;2022-12-07T00:01:54;101137.00;;;12.74;51.71
18784;BME280;9520;50.954;6.968;2022-12-07T00:02:15;101140.50;;;12.74;51.60
18784;BME280;9520;50.954;6.968;2022-12-07T00:02:37;101142.25;;;12.77;51.67
18784;BME280;9520;50.954;6.968;2022-12-07T00:03:00;101137.84;;;12.77;51.61
18784;BME280;9520;50.954;6.968;2022-12-07T00:03:21;101141.31;;;12.79;51.70
18784;BME280;9520;50.954;6.968;2022-12-07T00:03:45;101140.41;;;12.82;51.67
18784;BME280;9520;50.954;6.968;2022-12-07T00:04:10;101133.28;;;12.84;51.61
18784;BME280;9520;50.954;6.968;2022-12-07T00:04:33;101136.00;;;12.82;51.67
18784;BME280;9520;50.954;6.968;2022-12-07T00:04:55;101142.19;;;12.78;51.58
18784;BME280;9520;50.954;6.968;2022-12-07T00:05:16;101136.91;;;12.78;51.64
18784;BME280;9520;50.954;6.968;2022-12-07T00:05:38;101140.44;;;12.79;51.65
18784;BME280;9520;50.954;6.968;2022-12-07T00:06:00;101130.75;;;12.78;51.63
18784;BME280;9520;50.954;6.968;2022-12-07T00:06:23;101126.31;;;12.80;51.62
18784;BME280;9520;50.954;6.968;2022-12-07T00:06:46;101136.88;;;12.81;51.51
18784;BME280;9520;50.954;6.968;2022-12-07T00:07:08;101128.88;;;12.83;51.49
18784;BME280;9520;50.954;6.968;2022-12-07T00:07:30;101128.00;;;12.84;51.51
18784;BME280;9520;50.954;6.968;2022-12-07T00:07:52;101129.72;;;12.86;51.37
18784;BME280;9520;50.954;6.968;2022-12-07T00:08:14;101129.72;;;12.86;51.26
18784;BME280;9520;50.954;6.968;2022-12-07T00:08:36;101125.41;;;12.82;51.36
18784;BME280;9520;50.954;6.968;2022-12-07T00:08:57;101134.16;;;12.84;51.30
18784;BME280;9520;50.954;6.968;2022-12-07T00:09:21;101128.03;;;12.82;51.45
18784;BME280;9520;50.954;6.968;2022-12-07T00:09:42;101129.81;;;12.82;51.40
18784;BME280;9520;50.954;6.968;2022-12-07T00:10:06;101130.81;;;12.75;51.38
18784;BME280;9520;50.954;6.968;2022-12-07T00:10:29;101138.66;;;12.79;51.56
18784;BME280;9520;50.954;6.968;2022-12-07T00:10:50;101122.81;;;12.78;51.43
18784;BME280;9520;50.954;6.968;2022-12-07T00:11:15;101107.00;;;12.73;51.44
18784;BME280;9520;50.954;6.968;2022-12-07T00:11:37;101131.53;;;12.84;51.59
18784;BME280;9520;50.954;6.968;2022-12-07T00:11:58;101125.31;;;12.87;51.71
18784;BME280;9520;50.954;6.968;2022-12-07T00:12:21;101129.72;;;12.86;51.61
18784;BME280;9520;50.954;6.968;2022-12-07T00:12:43;101129.66;;;12.89;51.63
18784;BME280;9520;50.954;6.968;2022-12-07T00:13:04;101128.78;;;12.90;51.50
18784;BME280;9520;50.954;6.968;2022-12-07T00:13:26;101126.19;;;12.87;51.34
18784;BME280;9520;50.954;6.968;2022-12-07T00:13:51;101126.25;;;12.83;51.35
18784;BME280;9520;50.954;6.968;2022-12-07T00:14:15;101129.84;;;12.80;51.42
18784;BME280;9520;50.954;6.968;2022-12-07T00:14:37;101119.38;;;12.73;51.40
18784;BME280;9520;50.954;6.968;2022-12-07T00:14:58;101138.72;;;12.76;51.62
18784;BME280;9520;50.954;6.968;2022-12-07T00:15:20;101131.69;;;12.75;51.77
18784;BME280;9520;50.954;6.968;2022-12-07T00:15:42;101126.38;;;12.75;51.61
18784;BME280;9520;50.954;6.968;2022-12-07T00:16:07;101136.19;;;12.70;51.58
18784;BME280;9520;50.954;6.968;2022-12-07T00:16:30;101130.16;;;12.62;51.67
18784;BME280;9520;50.954;6.968;2022-12-07T00:16:53;101138.84;;;12.69;51.67
18784;BME280;9520;50.954;6.968;2022-12-07T00:17:14;101137.06;;;12.69;51.70
18784;BME280;9520;50.954;6.968;2022-12-07T00:17:37;101122.16;;;12.65;51.68
18784;BME280;9520;50.954;6.968;2022-12-07T00:17:59;101134.41;;;12.71;51.71
18784;BME280;9520;50.954;6.968;2022-12-07T00:18:20;101133.53;;;12.70;51.58
18784;BME280;9520;50.954;6.968;2022-12-07T00:18:43;101138.16;;;12.58;51.97
18784;BME280;9520;50.954;6.968;2022-12-07T00:19:05;101141.53;;;12.66;51.84
18784;BME280;9520;50.954;6.968;2022-12-07T00:19:27;101145.00;;;12.71;51.74
18784;BME280;9520;50.954;6.968;2022-12-07T00:19:49;101136.19;;;12.69;51.67
18784;BME280;9520;50.954;6.968;2022-12-07T00:20:11;101132.66;;;12.68;51.87
18784;BME280;9520;50.954;6.968;2022-12-07T00:20:32;101137.88;;;12.74;51.74
18784;BME280;9520;50.954;6.968;2022-12-07T00:20:59;101129.94;;;12.74;51.66
18784;BME280;9520;50.954;6.968;2022-12-07T00:21:22;101136.91;;;12.78;51.68
18784;BME280;9520;50.954;6.968;2022-12-07T00:21:43;101133.34;;;12.82;51.63
18784;BME280;9520;50.954;6.968;2022-12-07T00:22:05;101125.34;;;12.84;51.59
18784;BME280;9520;50.954;6.968;2022-12-07T00:22:28;101136.00;;;12.82;51.64
18784;BME280;9520;50.954;6.968;2022-12-07T00:22:49;101141.22;;;12.85;51.58
18784;BME280;9520;50.954;6.968;2022-12-07T00:23:11;101123.56;;;12.84;51.57
18784;BME280;9520;50.954;6.968;2022-12-07T00:23:33;101129.72;;;12.86;51.61
18784;BME280;9520;50.954;6.968;2022-12-07T00:23:56;101126.13;;;12.89;51.53
18784;BME280;9520;50.954;6.968;2022-12-07T00:24:19;101126.19;;;12.87;51.25
18784;BME280;9520;50.954;6.968;2022-12-07T00:24:40;101126.19;;;12.87;51.40
18784;BME280;9520;50.954;6.968;2022-12-07T00:25:02;101130.63;;;12.84;51.63
18784;BME280;9520;50.954;6.968;2022-12-07T00:25:24;101129.72;;;12.86;51.40
18784;BME280;9520;50.954;6.968;2022-12-07T00:25:47;101119.19;;;12.83;51.35
18784;BME280;9520;50.954;6.968;2022-12-07T00:26:12;101122.75;;;12.82;51.29
18784;BME280;9520;50.954;6.968;2022-12-07T00:26:37;101131.59;;;12.81;51.36
18784;BME280;9520;50.954;6.968;2022-12-07T00:27:00;101125.41;;;12.82;51.38
18784;BME280;9520;50.954;6.968;2022-12-07T00:27:22;101126.31;;;12.80;51.46
18784;BME280;9520;50.954;6.968;2022-12-07T00:27:43;101129.84;;;12.80;51.71
18784;BME280;9520;50.954;6.968;2022-12-07T00:28:05;101124.53;;;12.80;51.58
18784;BME280;9520;50.954;6.968;2022-12-07T00:28:28;101123.63;;;12.81;51.52
18784;BME280;9520;50.954;6.968;2022-12-07T00:28:52;101128.03;;;12.82;51.42
18784;BME280;9520;50.954;6.968;2022-12-07T00:29:16;101115.72;;;12.78;51.34
18784;BME280;9520;50.954;6.968;2022-12-07T00:29:38;101122.75;;;12.82;51.27
18784;BME280;9520;50.954;6.968;2022-12-07T00:30:00;101121.03;;;12.78;51.42
18784;BME280;9520;50.954;6.968;2022-12-07T00:30:23;101124.94;;;12.56;51.58
18784;BME280;9520;50.954;6.968;2022-12-07T00:30:45;101124.94;;;12.58;51.80
18784;BME280;9520;50.954;6.968;2022-12-07T00:31:08;101112.53;;;12.58;51.96
18784;BME280;9520;50.954;6.968;2022-12-07T00:31:33;101117.84;;;12.58;51.90
18784;BME280;9520;50.954;6.968;2022-12-07T00:31:56;101121.28;;;12.63;51.82
18784;BME280;9520;50.954;6.968;2022-12-07T00:32:18;101122.16;;;12.64;51.92
18784;BME280;9520;50.954;6.968;2022-12-07T00:32:40;101115.16;;;12.63;51.99
18784;BME280;9520;50.954;6.968;2022-12-07T00:33:02;101121.25;;;12.66;51.97
18784;BME280;9520;50.954;6.968;2022-12-07T00:33:24;101118.63;;;12.65;52.05
18784;BME280;9520;50.954;6.968;2022-12-07T00:33:46;101109.00;;;12.59;51.93
18784;BME280;9520;50.954;6.968;2022-12-07T00:34:12;101112.28;;;12.73;51.87
18784;BME280;9520;50.954;6.968;2022-12-07T00:34:35;101116.69;;;12.74;51.87
18784;BME280;9520;50.954;6.968;2022-12-07T00:34:57;101121.22;;;12.68;51.79
18784;BME280;9520;50.954;6.968;2022-12-07T00:35:18;101114.09;;;12.71;51.89
18784;BME280;9520;50.954;6.968;2022-12-07T00:35:40;101120.31;;;12.69;51.64
18784;BME280;9520;50.954;6.968;2022-12-07T00:36:03;101124.72;;;12.68;51.79
18784;BME280;9520;50.954;6.968;2022-12-07T00:36:27;101122.03;;;12.73;51.80
18784;BME280;9520;50.954;6.968;2022-12-07T00:36:50;101120.22;;;12.75;51.80
18784;BME280;9520;50.954;6.968;2022-12-07T00:37:11;101116.75;;;12.73;51.75
18784;BME280;9520;50.954;6.968;2022-12-07T00:37:34;101107.00;;;12.73;51.68
18784;BME280;9520;50.954;6.968;2022-12-07T00:37:56;101102.59;;;12.74;51.66
18784;BME280;9520;50.954;6.968;2022-12-07T00:38:17;101114.91;;;12.76;51.63
18784;BME280;9520;50.954;6.968;2022-12-07T00:38:40;101119.31;;;12.77;51.55
18784;BME280;9520;50.954;6.968;2022-12-07T00:39:03;101104.34;;;12.75;51.38
18784;BME280;9520;50.954;6.968;2022-12-07T00:39:25;101111.31;;;12.79;51.46
18784;BME280;9520;50.954;6.968;2022-12-07T00:39:46;101118.38;;;12.80;51.50
18784;BME280;9520;50.954;6.968;2022-12-07T00:40:08;101114.91;;;12.76;51.50
18784;BME280;9520;50.954;6.968;2022-12-07T00:40:31;101110.50;;;12.75;51.59
18784;BME280;9520;50.954;6.968;2022-12-07T00:40:56;101118.44;;;12.77;51.71
18784;BME280;9520;50.954;6.968;2022-12-07T00:41:20;101122.78;;;12.79;51.80
18784;BME280;9520;50.954;6.968;2022-12-07T00:41:43;101115.72;;;12.78;51.69
18784;BME280;9520;50.954;6.968;2022-12-07T00:42:06;101115.72;;;12.78;51.53
18784;BME280;9520;50.954;6.968;2022-12-07T00:42:27;101118.38;;;12.80;51.45
18784;BME280;9520;50.954;6.968;2022-12-07T00:42:49;101108.72;;;12.77;51.41
18784;BME280;9520;50.954;6.968;2022-12-07T00:43:10;101118.28;;;12.86;51.42
18784;BME280;9520;50.954;6.968;2022-12-07T00:43:33;101113.78;;;12.89;51.13
18784;BME280;9520;50.954;6.968;2022-12-07T00:43:55;101119.06;;;12.89;51.13
18784;BME280;9520;50.954;6.968;2022-12-07T00:44:17;101105.00;;;12.87;51.35
18784;BME280;9520;50.954;6.968;2022-12-07T00:44:40;101108.50;;;12.89;51.25
18784;BME280;9520;50.954;6.968;2022-12-07T00:45:02;101111.19;;;12.86;51.29
18784;BME280;9520;50.954;6.968;2022-12-07T00:45:23;101112.09;;;12.87;51.25
18784;BME280;9520;50.954;6.968;2022-12-07T00:45:45;101112.09;;;12.85;51.23
18784;BME280;9520;50.954;6.968;2022-12-07T00:46:07;101113.00;;;12.84;51.31
18784;BME280;9520;50.954;6.968;2022-12-07T00:46:30;101115.66;;;12.83;51.27
18784;BME280;9520;50.954;6.968;2022-12-07T00:46:52;101109.44;;;12.85;51.37
18784;BME280;9520;50.954;6.968;2022-12-07T00:47:13;101113.88;;;12.85;51.40
18784;BME280;9520;50.954;6.968;2022-12-07T00:47:36;101110.59;;;12.69;51.66
18784;BME280;9520;50.954;6.968;2022-12-07T00:47:57;101111.41;;;12.74;51.66
18784;BME280;9520;50.954;6.968;2022-12-07T00:48:19;101103.53;;;12.71;51.54
18784;BME280;9520;50.954;6.968;2022-12-07T00:48:41;101113.97;;;12.79;51.53
18784;BME280;9520;50.954;6.968;2022-12-07T00:49:04;101102.50;;;12.78;51.75
18784;BME280;9520;50.954;6.968;2022-12-07T00:49:26;101107.75;;;12.81;51.48
18784;BME280;9520;50.954;6.968;2022-12-07T00:49:47;101111.28;;;12.82;51.60
18784;BME280;9520;50.954;6.968;2022-12-07T00:50:09;101111.31;;;12.80;51.77
18784;BME280;9520;50.954;6.968;2022-12-07T00:50:32;101100.72;;;12.79;51.93
18784;BME280;9520;50.954;6.968;2022-12-07T00:50:53;101102.41;;;12.83;51.85
18784;BME280;9520;50.954;6.968;2022-12-07T00:51:17;101107.69;;;12.84;51.65
18784;BME280;9520;50.954;6.968;2022-12-07T00:51:40;101108.56;;;12.85;51.54
18784;BME280;9520;50.954;6.968;2022-12-07T00:52:02;101105.94;;;12.83;51.66
18784;BME280;9520;50.954;6.968;2022-12-07T00:52:24;101114.72;;;12.87;51.55
18784;BME280;9520;50.954;6.968;2022-12-07T00:52:46;101112.94;;;12.87;51.48
18784;BME280;9520;50.954;6.968;2022-12-07T00:53:07;101109.44;;;12.87;51.57
18784;BME280;9520;50.954;6.968;2022-12-07T00:53:30;101106.78;;;12.87;51.44
18784;BME280;9520;50.954;6.968;2022-12-07T00:54:01;101105.91;;;12.86;51.34
18784;BME280;9520;50.954;6.968;2022-12-07T00:54:24;101105.84;;;12.89;51.48
18784;BME280;9520;50.954;6.968;2022-12-07T00:54:45;101104.06;;;12.90;51.43
18784;BME280;9520;50.954;6.968;2022-12-07T00:55:08;101112.88;;;12.92;51.35
18784;BME280;9520;50.954;6.968;2022-12-07T00:55:32;101105.84;;;12.89;51.24
18784;BME280;9520;50.954;6.968;2022-12-07T00:55:55;101108.50;;;12.88;51.35
18784;BME280;9520;50.954;6.968;2022-12-07T00:56:19;101105.91;;;12.86;51.45
18784;BME280;9520;50.954;6.968;2022-12-07T00:56:42;101106.78;;;12.87;51.55
18784;BME280;9520;50.954;6.968;2022-12-07T00:57:05;101097.91;;;12.89;51.35
18784;BME280;9520;50.954;6.968;2022-12-07T00:57:26;101103.09;;;12.94;51.31
18784;BME280;9520;50.954;6.968;2022-12-07T00:57:48;101108.41;;;12.94;51.06
18784;BME280;9520;50.954;6.968;2022-12-07T00:58:10;101098.75;;;12.91;51.14
18784;BME280;9520;50.954;6.968;2022-12-07T00:58:31;101103.09;;;12.95;51.04
18784;BME280;9520;50.954;6.968;2022-12-07T00:58:56;101102.19;;;12.96;51.08
18784;BME280;9520;50.954;6.968;2022-12-07T00:59:17;101109.28;;;12.94;51.06
18784;BME280;9520;50.954;6.968;2022-12-07T00:59:39;101103.06;;;12.97;51.12
18784;BME280;9520;50.954;6.968;2022-12-07T01:00:01;101104.78;;;12.98;51.13
18784;BME280;9520;50.954;6.968;2022-12-07T01:00:24;101110.94;;;13.00;51.28
18784;BME280;9520;50.954;6.968;2022-12-07T01:00:45;101111.84;;;12.97;51.29
18784;BME280;9520;50.954;6.968;2022-12-07T01:01:08;101103.91;;;12.99;51.33
18784;BME280;9520;50.954;6.968;2022-12-07T01:01:32;101108.28;;;13.02;51.36
18784;BME280;9520;50.954;6.968;2022-12-07T01:01:55;101110.94;;;13.02;51.38
18784;BME280;9520;50.954;6.968;2022-12-07T01:02:17;101107.34;;;13.03;51.18
18784;BME280;9520;50.954;6.968;2022-12-07T01:02:39;101089.06;;;12.90;51.07
18784;BME280;9520;50.954;6.968;2022-12-07T01:03:01;101110.06;;;12.99;51.18
18784;BME280;9520;50.954;6.968;2022-12-07T01:03:22;101105.66;;;12.98;51.26
18784;BME280;9520;50.954;6.968;2022-12-07T01:03:45;101108.38;;;12.95;51.27
18784;BME280;9520;50.954;6.968;2022-12-07T01:04:07;101108.38;;;12.95;51.04
18784;BME280;9520;50.954;6.968;2022-12-07T01:04:29;101103.09;;;12.95;51.18
18784;BME280;9520;50.954;6.968;2022-12-07T01:04:51;101103.91;;;12.99;51.28
18784;BME280;9520;50.954;6.968;2022-12-07T01:05:13;101104.84;;;12.96;51.13
18784;BME280;9520;50.954;6.968;2022-12-07T01:05:35;101104.88;;;12.93;51.27
18784;BME280;9520;50.954;6.968;2022-12-07T01:05:57;101107.53;;;12.93;51.39
18784;BME280;9520;50.954;6.968;2022-12-07T01:06:20;101097.91;;;12.89;51.46
18784;BME280;9520;50.954;6.968;2022-12-07T01:06:43;101106.66;;;12.93;51.38
18784;BME280;9520;50.954;6.968;2022-12-07T01:07:05;101103.97;;;12.94;51.27
18784;BME280;9520;50.954;6.968;2022-12-07T01:07:26;101106.63;;;12.96;51.10
18784;BME280;9520;50.954;6.968;2022-12-07T01:07:48;101101.34;;;12.94;51.21
18784;BME280;9520;50.954;6.968;2022-12-07T01:08:10;101096.06;;;12.93;51.23
18784;BME280;9520;50.954;6.968;2022-12-07T01:08:33;101106.56;;;12.97;51.11
18784;BME280;9520;50.954;6.968;2022-12-07T01:08:55;101104.97;;;12.89;51.29
18784;BME280;9520;50.954;6.968;2022-12-07T01:09:16;101103.25;;;12.86;51.06
18784;BME280;9520;50.954;6.968;2022-12-07T01:09:38;101105.03;;;12.86;51.46
18784;BME280;9520;50.954;6.968;2022-12-07T01:10:01;101102.38;;;12.86;51.16
18784;BME280;9520;50.954;6.968;2022-12-07T01:10:23;101103.19;;;12.89;51.37
18784;BME280;9520;50.954;6.968;2022-12-07T01:10:45;101106.69;;;12.91;51.31
18784;BME280;9520;50.954;6.968;2022-12-07T01:11:09;101111.91;;;12.96;51.17
18784;BME280;9520;50.954;6.968;2022-12-07T01:11:31;101111.91;;;12.96;51.01
18784;BME280;9520;50.954;6.968;2022-12-07T01:11:55;101113.66;;;12.97;51.11
18784;BME280;9520;50.954;6.968;2022-12-07T01:12:17;101107.50;;;12.95;51.29
18784;BME280;9520;50.954;6.968;2022-12-07T01:12:39;101109.28;;;12.94;51.44
18784;BME280;9520;50.954;6.968;2022-12-07T01:13:01;101118.97;;;12.97;51.32
18784;BME280;9520;50.954;6.968;2022-12-07T01:13:23;101113.59;;;13.00;51.30
18784;BME280;9520;50.954;6.968;2022-12-07T01:13:46;101102.19;;;12.96;51.30
18784;BME280;9520;50.954;6.968;2022-12-07T01:14:08;101105.72;;;12.97;51.25
18784;BME280;9520;50.954;6.968;2022-12-07T01:14:30;101112.66;;;13.03;51.14
18784;BME280;9520;50.954;6.968;2022-12-07T01:14:52;101114.41;;;13.04;51.09
18784;BME280;9520;50.954;6.968;2022-12-07T01:15:14;101113.53;;;13.03;51.13
18784;BME280;9520;50.954;6.968;2022-12-07T01:15:38;101103.09;;;12.95;51.16
18784;BME280;9520;50.954;6.968;2022-12-07T01:16:03;101116.25;;;13.00;51.13
18784;BME280;9520;50.954;6.968;2022-12-07T01:16:26;101108.28;;;13.02;51.19
18784;BME280;9520;50.954;6.968;2022-12-07T01:16:49;101111.84;;;12.99;51.14
18784;BME280;9520;50.954;6.968;2022-12-07T01:17:11;101104.78;;;12.98;51.19
18784;BME280;9520;50.954;6.968;2022-12-07T01:17:33;101110.97;;;12.98;51.31
18784;BME280;9520;50.954;6.968;2022-12-07T01:17:55;101107.53;;;12.93;51.26
18784;BME280;9520;50.954;6.968;2022-12-07T01:18:16;101101.41;;;12.91;51.26
18784;BME280;9520;50.954;6.968;2022-12-07T01:18:39;101102.31;;;12.89;51.35
18784;BME280;9520;50.954;6.968;2022-12-07T01:19:02;101098.94;;;12.82;51.34
18784;BME280;9520;50.954;6.968;2022-12-07T01:19:26;101106.72;;;12.88;51.53
18784;BME280;9520;50.954;6.968;2022-12-07T01:19:47;101114.56;;;12.94;51.43
18784;BME280;9520;50.954;6.968;2022-12-07T01:20:11;101105.75;;;12.94;51.35
18784;BME280;9520;50.954;6.968;2022-12-07T01:20:33;101110.09;;;12.98;51.30
18784;BME280;9520;50.954;6.968;2022-12-07T01:20:59;101113.59;;;13.00;51.19
18784;BME280;9520;50.954;6.968;2022-12-07T01:21:23;101116.25;;;12.98;51.21
18784;BME280;9520;50.954;6.968;2022-12-07T01:21:46;101113.56;;;13.02;51.14
18784;BME280;9520;50.954;6.968;2022-12-07T01:22:08;101116.34;;;12.94;51.09
18784;BME280;9520;50.954;6.968;2022-12-07T01:22:30;101118.25;;;12.87;51.27
18784;BME280;9520;50.954;6.968;2022-12-07T01:22:51;101113.94;;;12.82;51.26
18784;BME280;9520;50.954;6.968;2022-12-07T01:23:13;101107.69;;;12.84;51.20
18784;BME280;9520;50.954;6.968;2022-12-07T01:23:36;101115.59;;;12.87;51.30
18784;BME280;9520;50.954;6.968;2022-12-07T01:23:58;101111.13;;;12.91;51.27
18784;BME280;9520;50.954;6.968;2022-12-07T01:24:20;101114.66;;;12.90;51.39
18784;BME280;9520;50.954;6.968;2022-12-07T01:24:41;101114.69;;;12.88;51.26
18784;BME280;9520;50.954;6.968;2022-12-07T01:25:05;101110.31;;;12.87;51.43
18784;BME280;9520;50.954;6.968;2022-12-07T01:25:27;101108.47;;;12.91;51.34
18784;BME280;9520;50.954;6.968;2022-12-07T01:25:54;101122.44;;;12.97;51.32
18784;BME280;9520;50.954;6.968;2022-12-07T01:26:17;101106.72;;;12.88;51.38
18784;BME280;9520;50.954;6.968;2022-12-07T01:26:40;101120.66;;;13.01;51.26
18784;BME280;9520;50.954;6.968;2022-12-07T01:27:03;101123.22;;;13.04;51.08
18784;BME280;9520;50.954;6.968;2022-12-07T01:27:25;101119.78;;;13.01;50.91
18784;BME280;9520;50.954;6.968;2022-12-07T01:27:47;101116.19;;;13.03;51.08
18784;BME280;9520;50.954;6.968;2022-12-07T01:28:08;101111.75;;;13.05;51.03
18784;BME280;9520;50.954;6.968;2022-12-07T01:28:31;101112.66;;;13.03;51.10
18784;BME280;9520;50.954;6.968;2022-12-07T01:28:53;101122.34;;;13.05;51.28
18784;BME280;9520;50.954;6.968;2022-12-07T01:29:16;101115.28;;;13.03;51.06
18784;BME280;9520;50.954;6.968;2022-12-07T01:29:39;101112.66;;;13.03;51.05
18784;BME280;9520;50.954;6.968;2022-12-07T01:30:01;101117.06;;;13.04;50.77
18784;BME280;9520;50.954;6.968;2022-12-07T01:30:24;101119.69;;;13.04;51.00
18784;BME280;9520;50.954;6.968;2022-12-07T01:30:54;101112.63;;;13.04;51.12
18784;BME280;9520;50.954;6.968;2022-12-07T01:31:19;101116.19;;;13.03;51.03
18784;BME280;9520;50.954;6.968;2022-12-07T01:31:41;101112.63;;;13.04;51.12
18784;BME280;9520;50.954;6.968;2022-12-07T01:32:03;101094.38;;;12.89;51.05
18784;BME280;9520;50.954;6.968;2022-12-07T01:33:02;101114.50;;;12.97;51.04
18784;BME280;9520;50.954;6.968;2022-12-07T01:33:23;101113.69;;;12.95;51.14
18784;BME280;9520;50.954;6.968;2022-12-07T01:33:46;101108.31;;;12.98;51.26
18784;BME280;9520;50.954;6.968;2022-12-07T01:34:10;101108.28;;;13.02;50.89
18784;BME280;9520;50.954;6.968;2022-12-07T01:34:53;101117.91;;;13.07;50.79
18784;BME280;9520;50.954;6.968;2022-12-07T01:35:15;101106.50;;;13.02;50.86
18784;BME280;9520;50.954;6.968;2022-12-07T01:35:37;101111.66;;;13.08;50.97
18784;BME280;9520;50.954;6.968;2022-12-07T01:36:03;101111.66;;;13.10;50.89
18784;BME280;9520;50.954;6.968;2022-12-07T01:36:27;101109.91;;;13.12;50.80
18784;BME280;9520;50.954;6.968;2022-12-07T01:36:49;101115.19;;;13.12;50.77
18784;BME280;9520;50.954;6.968;2022-12-07T01:37:11;101111.66;;;13.11;50.75
18784;BME280;9520;50.954;6.968;2022-12-07T01:37:34;101110.78;;;13.09;50.64
18784;BME280;9520;50.954;6.968;2022-12-07T01:37:56;101110.75;;;13.11;50.63
18784;BME280;9520;50.954;6.968;2022-12-07T01:38:18;101116.91;;;13.13;50.70
18784;BME280;9520;50.954;6.968;2022-12-07T01:38:40;101117.78;;;13.13;50.83
18784;BME280;9520;50.954;6.968;2022-12-07T01:39:05;101113.41;;;13.12;50.91
18784;BME280;9520;50.954;6.968;2022-12-07T01:39:27;101116.06;;;13.12;50.94
18784;BME280;9520;50.954;6.968;2022-12-07T01:39:49;101111.66;;;13.11;50.83
18784;BME280;9520;50.954;6.968;2022-12-07T01:40:11;101116.13;;;13.06;50.95
18784;BME280;9520;50.954;6.968;2022-12-07T01:40:34;101111.72;;;13.07;50.78
18784;BME280;9520;50.954;6.968;2022-12-07T01:40:56;101091.56;;;12.98;50.71
18784;BME280;9520;50.954;6.968;2022-12-07T01:41:20;101119.66;;;13.07;50.99
18784;BME280;9520;50.954;6.968;2022-12-07T01:41:42;101110.84;;;13.06;50.65
18784;BME280;9520;50.954;6.968;2022-12-07T01:42:08;101112.63;;;13.06;50.80
18784;BME280;9520;50.954;6.968;2022-12-07T01:42:30;101108.22;;;13.05;50.68
18784;BME280;9520;50.954;6.968;2022-12-07T01:42:52;101112.66;;;13.03;50.66
18784;BME280;9520;50.954;6.968;2022-12-07T01:43:16;101112.69;;;13.01;50.85
18784;BME280;9520;50.954;6.968;2022-12-07T01:45:43;101104.00;;;12.93;50.89
18784;BME280;9520;50.954;6.968;2022-12-07T01:46:05;101110.13;;;12.96;51.05
18784;BME280;9520;50.954;6.968;2022-12-07T01:46:28;101114.56;;;12.94;51.13
18784;BME280;9520;50.954;6.968;2022-12-07T01:46:51;101106.63;;;12.96;51.07
18784;BME280;9520;50.954;6.968;2022-12-07T01:47:12;101099.59;;;12.93;50.96
18784;BME280;9520;50.954;6.968;2022-12-07T01:47:34;101109.22;;;12.97;51.03
18784;BME280;9520;50.954;6.968;2022-12-07T01:47:58;101111.84;;;12.97;50.99
18784;BME280;9520;50.954;6.968;2022-12-07T01:48:22;101106.56;;;12.97;50.92
18784;BME280;9520;50.954;6.968;2022-12-07T01:48:45;101103.09;;;12.95;51.07
18784;BME280;9520;50.954;6.968;2022-12-07T01:49:09;101108.31;;;12.98;50.99
18784;BME280;9520;50.954;6.968;2022-12-07T01:49:36;101107.41;;;13.01;51.11
18784;BME280;9520;50.954;6.968;2022-12-07T01:49:59;101112.66;;;13.03;51.03
18784;BME280;9520;50.954;6.968;2022-12-07T01:50:24;101105.59;;;13.03;50.91
18784;BME280;9520;50.954;6.968;2022-12-07T01:50:48;101110.88;;;13.05;50.86
18784;BME280;9520;50.954;6.968;2022-12-07T01:51:13;101108.16;;;13.08;50.91
18784;BME280;9520;50.954;6.968;2022-12-07T01:51:37;101109.03;;;13.08;50.79
18784;BME280;9520;50.954;6.968;2022-12-07T01:52:08;101109.94;;;13.07;50.68
18784;BME280;9520;50.954;6.968;2022-12-07T01:52:33;101107.31;;;13.07;50.82
18784;BME280;9520;50.954;6.968;2022-12-07T01:52:57;101108.09;;;13.11;50.96
18784;BME280;9520;50.954;6.968;2022-12-07T01:53:21;101108.97;;;13.13;50.79
18784;BME280;9520;50.954;6.968;2022-12-07T01:53:46;101100.19;;;13.12;50.77
18784;BME280;9520;50.954;6.968;2022-12-07T01:54:09;101107.19;;;13.13;51.00
18784;BME280;9520;50.954;6.968;2022-12-07T01:54:34;101108.09;;;13.11;51.01
18784;BME280;9520;50.954;6.968;2022-12-07T01:54:58;101075.84;;;12.89;50.87
18784;BME280;9520;50.954;6.968;2022-12-07T01:55:22;101113.44;;;13.08;50.95
18784;BME280;9520;50.954;6.968;2022-12-07T01:55:46;101109.91;;;13.09;51.09
18784;BME280;9520;50.954;6.968;2022-12-07T01:56:15;101112.53;;;13.12;51.02
18784;BME280;9520;50.954;6.968;2022-12-07T01:56:39;101101.91;;;13.13;51.02
18784;BME280;9520;50.954;6.968;2022-12-07T01:57:07;101099.22;;;13.15;50.89
18784;BME280;9520;50.954;6.968;2022-12-07T01:57:31;101110.78;;;13.12;50.83
18784;BME280;9520;50.954;6.968;2022-12-07T01:57:55;101107.25;;;13.12;51.03
18784;BME280;9520;50.954;6.968;2022-12-07T01:58:18;101101.03;;;13.13;50.96
18784;BME280;9520;50.954;6.968;2022-12-07T01:58:40;101104.53;;;13.15;50.89
18784;BME280;9520;50.954;6.968;2022-12-07T01:59:03;101102.78;;;13.14;50.72
18784;BME280;9520;50.954;6.968;2022-12-07T01:59:25;101098.38;;;13.13;50.90
18784;BME280;9520;50.954;6.968;2022-12-07T01:59:49;101096.59;;;13.13;50.82
18784;BME280;9520;50.954;6.968;2022-12-07T02:00:12;101094.88;;;13.11;50.77
18784;BME280;9520;50.954;6.968;2022-12-07T02:00:35;101096.56;;;13.16;50.74
18784;BME280;9520;50.954;6.968;2022-12-07T02:00:57;101094.81;;;13.15;50.85
18784;BME280;9520;50.954;6.968;2022-12-07T02:01:19;101104.53;;;13.15;50.80
18784;BME280;9520;50.954;6.968;2022-12-07T02:01:40;101094.88;;;13.12;50.85
18784;BME280;9520;50.954;6.968;2022-12-07T02:02:07;101098.44;;;13.11;50.82
18784;BME280;9520;50.954;6.968;2022-12-07T02:02:34;101094.00;;;13.12;50.83
18784;BME280;9520;50.954;6.968;2022-12-07T02:03:01;101093.13;;;13.11;50.91
18784;BME280;9520;50.954;6.968;2022-12-07T02:03:30;101091.34;;;13.10;51.04
18784;BME280;9520;50.954;6.968;2022-12-07T02:03:53;101093.94;;;13.15;51.03